Time;durP1;ratioP1;P1;durP2;ratioP2;P2;SDS_P1;SDS_P2;PMS_P1;PMS_P2;Temp;Humidity;BMP_temperature;BMP_pressure;BME280_temperature;BME280_humidity;BME280_pressure;Samples;Min_cycle;Max_cycle;Signal;HPM_P1;HPM_P2
2021/03/07 00:00:32;;;;;;;16.73;8.20;;;;;;;4.68;48.87;100728.72;5025988;28;20050;-73
2021/03/07 00:02:58;;;;;;;14.02;8.65;;;;;;;4.69;48.88;100717.44;5027277;28;20066;-73
2021/03/07 00:05:24;;;;;;;11.20;7.18;;;;;;;4.68;49.02;100713.13;5028400;28;20065;-73
2021/03/07 00:07:52;;;;;;;13.07;6.65;;;;;;;4.69;49.01;100714.84;5030199;28;20136;-74
2021/03/07 00:10:19;;;;;;;10.25;6.07;;;;;;;4.67;49.11;100719.19;5029642;28;20075;-74
2021/03/07 00:12:48;;;;;;;12.05;6.68;;;;;;;4.66;49.40;100709.69;5028406;28;20140;-73
2021/03/07 00:15:17;;;;;;;14.52;6.90;;;;;;;4.67;49.21;100724.41;5029047;28;20053;-73
2021/03/07 00:17:45;;;;;;;18.02;8.38;;;;;;;4.70;49.33;100714.84;5030062;28;20056;-73
2021/03/07 00:20:14;;;;;;;14.07;7.68;;;;;;;4.70;49.36;100713.97;5029910;28;20136;-73
2021/03/07 00:22:41;;;;;;;17.88;8.20;;;;;;;4.71;49.57;100710.50;5026195;28;20092;-73
2021/03/07 00:25:09;;;;;;;18.58;8.98;;;;;;;4.72;49.63;100704.44;5031159;28;20049;-73
2021/03/07 00:27:35;;;;;;;18.30;8.57;;;;;;;4.74;49.47;100703.56;5042854;28;20037;-74
2021/03/07 00:30:03;;;;;;;11.68;8.40;;;;;;;4.71;49.73;100694.94;5029322;28;20041;-74
2021/03/07 00:32:30;;;;;;;12.88;7.93;;;;;;;4.69;49.94;100688.88;5024651;28;20107;-73
2021/03/07 00:34:56;;;;;;;14.75;7.28;;;;;;;4.70;49.91;100682.81;5029228;28;20053;-74
2021/03/07 00:37:22;;;;;;;13.43;7.50;;;;;;;4.65;50.23;100689.78;5027312;28;20144;-74
2021/03/07 00:39:48;;;;;;;16.35;9.23;;;;;;;4.68;50.10;100685.44;5029008;28;20140;-74
2021/03/07 00:42:14;;;;;;;15.18;7.90;;;;;;;4.70;50.12;100683.69;5028644;28;20410;-73
2021/03/07 00:44:41;;;;;;;15.30;7.63;;;;;;;4.72;50.24;100681.06;5019303;28;20073;-74
2021/03/07 00:47:07;;;;;;;15.90;8.25;;;;;;;4.70;50.41;100664.63;5027366;28;20076;-74
2021/03/07 00:49:34;;;;;;;14.43;8.00;;;;;;;4.70;50.63;100667.22;5029167;28;20124;-74
2021/03/07 00:52:00;;;;;;;17.15;7.97;;;;;;;4.73;50.67;100651.63;5026907;28;20076;-73
2021/03/07 00:54:27;;;;;;;12.63;7.03;;;;;;;4.75;50.55;100647.28;5032684;28;20057;-74
2021/03/07 00:56:54;;;;;;;14.20;8.05;;;;;;;4.74;50.57;100646.41;5032692;28;20053;-74
2021/03/07 00:59:20;;;;;;;14.57;7.45;;;;;;;4.73;50.93;100641.22;5033605;28;20050;-75
2021/03/07 01:01:47;;;;;;;13.52;7.13;;;;;;;4.74;50.66;100638.63;5032257;28;20528;-74
2021/03/07 01:04:13;;;;;;;17.27;7.85;;;;;;;4.72;50.86;100626.53;5032660;28;20456;-74
2021/03/07 01:06:40;;;;;;;16.52;8.88;;;;;;;4.70;51.43;100625.69;5032139;28;20048;-74
2021/03/07 01:09:08;;;;;;;13.73;7.82;;;;;;;4.75;51.01;100618.69;5033919;28;20494;-74
2021/03/07 01:11:34;;;;;;;15.00;7.20;;;;;;;4.72;50.94;100617.00;5032891;28;20041;-73
2021/03/07 01:14:00;;;;;;;13.18;7.63;;;;;;;4.71;51.21;100617.00;5030922;28;20068;-73
2021/03/07 01:16:26;;;;;;;15.35;7.00;;;;;;;4.68;51.49;100617.03;5030645;28;20045;-73
2021/03/07 01:18:53;;;;;;;15.88;7.72;;;;;;;4.68;51.47;100622.22;5032952;28;20089;-73
2021/03/07 01:21:19;;;;;;;13.20;7.80;;;;;;;4.67;51.33;100620.50;5032561;28;20144;-74
2021/03/07 01:23:46;;;;;;;19.70;8.23;;;;;;;4.65;51.59;100614.47;5028549;28;20080;-73
2021/03/07 01:26:12;;;;;;;13.95;7.57;;;;;;;4.63;51.66;100608.44;5026492;28;20060;-74
2021/03/07 01:28:38;;;;;;;15.07;7.65;;;;;;;4.68;51.86;100609.25;5032011;28;20136;-73
2021/03/07 01:31:04;;;;;;;15.43;8.15;;;;;;;4.71;51.67;100604.03;5031666;28;20601;-73
2021/03/07 01:33:31;;;;;;;14.60;7.50;;;;;;;4.71;51.75;100597.09;5028274;28;20140;-73
2021/03/07 01:36:02;;;;;;;15.45;7.00;;;;;;;4.73;51.85;100603.13;5030787;28;20046;-75
2021/03/07 01:38:28;;;;;;;16.40;8.48;;;;;;;4.78;51.45;100596.16;5031390;28;20053;-74
2021/03/07 01:40:55;;;;;;;20.00;8.68;;;;;;;4.81;51.58;100582.31;5032193;28;21616;-74
2021/03/07 01:43:23;;;;;;;15.10;7.13;;;;;;;4.79;51.91;100581.44;5032431;28;20045;-74
2021/03/07 01:45:50;;;;;;;11.38;6.43;;;;;;;4.77;51.69;100581.44;5027969;28;20123;-74
2021/03/07 01:48:17;;;;;;;11.45;6.70;;;;;;;4.78;51.77;100590.09;5030029;28;20083;-73
2021/03/07 01:50:46;;;;;;;18.42;8.00;;;;;;;4.76;51.77;100571.06;5026716;28;20050;-73
2021/03/07 01:53:13;;;;;;;14.68;8.00;;;;;;;4.80;51.92;100565.00;5031839;28;20053;-74
2021/03/07 01:55:41;;;;;;;13.27;7.65;;;;;;;4.75;52.13;100571.94;5029794;28;20444;-74
2021/03/07 01:58:11;;;;;;;13.80;6.82;;;;;;;4.78;52.08;100564.97;5029315;28;20137;-74
2021/03/07 02:00:38;;;;;;;14.30;7.57;;;;;;;4.79;51.85;100568.44;5029085;28;20037;-73
2021/03/07 02:03:05;;;;;;;15.65;7.05;;;;;;;4.77;51.92;100560.66;5031276;28;20051;-73
2021/03/07 02:05:32;;;;;;;11.13;6.32;;;;;;;4.78;51.99;100558.94;5030753;28;20081;-75
2021/03/07 02:07:59;;;;;;;13.43;7.50;;;;;;;4.81;52.08;100551.13;5031287;28;20080;-73
2021/03/07 02:10:28;;;;;;;14.98;7.07;;;;;;;4.81;52.06;100536.41;5029249;28;20120;-73
2021/03/07 02:12:58;;;;;;;12.10;6.57;;;;;;;4.83;52.07;100550.25;5032343;28;20136;-73
2021/03/07 02:15:28;;;;;;;15.85;6.82;;;;;;;4.86;51.86;100554.53;5029408;28;20042;-73
2021/03/07 02:17:54;;;;;;;13.63;6.68;;;;;;;4.90;51.93;100557.09;5031690;28;20085;-73
2021/03/07 02:20:25;;;;;;;12.60;6.20;;;;;;;4.83;51.95;100549.38;5031243;28;20504;-74
2021/03/07 02:22:58;;;;;;;9.73;6.07;;;;;;;4.82;52.12;100545.06;5025600;28;20288;-74
2021/03/07 02:25:27;;;;;;;14.88;6.65;;;;;;;4.85;52.05;100545.88;5031889;28;20140;-74
2021/03/07 02:27:53;;;;;;;17.50;7.47;;;;;;;4.89;52.08;100544.13;5030234;28;20073;-74
2021/03/07 02:30:21;;;;;;;8.98;5.47;;;;;;;4.88;51.94;100537.19;5030505;28;20128;-74
2021/03/07 02:32:52;;;;;;;10.88;6.05;;;;;;;4.86;51.79;100533.75;5029607;28;20483;-74
2021/03/07 02:35:21;;;;;;;12.70;6.28;;;;;;;4.86;51.80;100524.22;5031816;28;20080;-73
2021/03/07 02:37:55;;;;;;;13.85;6.35;;;;;;;4.84;52.12;100514.72;5030705;28;20057;-74
2021/03/07 02:40:27;;;;;;;8.60;6.00;;;;;;;4.85;52.05;100522.50;5028761;28;20053;-74
2021/03/07 02:42:57;;;;;;;10.23;5.50;;;;;;;4.87;51.81;100519.88;5025032;28;20493;-74
2021/03/07 02:45:23;;;;;;;10.40;6.38;;;;;;;4.82;52.14;100509.56;5031577;28;20335;-74
2021/03/07 02:47:54;;;;;;;12.30;6.03;;;;;;;4.88;52.02;100500.81;5025873;28;20147;-74
2021/03/07 02:50:24;;;;;;;10.38;6.35;;;;;;;4.88;52.18;100495.63;5031601;28;20085;-74
2021/03/07 02:52:54;;;;;;;10.38;5.43;;;;;;;4.84;52.28;100496.53;5030705;28;20089;-74
2021/03/07 02:55:21;;;;;;;10.20;5.47;;;;;;;4.83;52.27;100495.69;5032208;28;20128;-73
2021/03/07 02:57:50;;;;;;;10.25;6.38;;;;;;;4.83;52.43;100495.69;5030901;28;20077;-73
2021/03/07 03:00:18;;;;;;;9.57;5.65;;;;;;;4.84;52.11;100493.94;5031505;28;20049;-74
2021/03/07 03:02:47;;;;;;;10.73;6.53;;;;;;;4.86;52.32;100492.19;5031530;28;20061;-73
2021/03/07 03:05:16;;;;;;;10.75;5.90;;;;;;;4.88;52.22;100490.44;5030043;28;20152;-74
2021/03/07 03:07:43;;;;;;;10.75;5.65;;;;;;;4.86;52.49;100477.47;5031218;28;20045;-74
2021/03/07 03:10:11;;;;;;;12.68;6.93;;;;;;;4.83;52.44;100487.03;5031254;28;20057;-74
2021/03/07 03:12:40;;;;;;;12.07;6.18;;;;;;;4.84;52.53;100478.38;5030711;28;20045;-74
2021/03/07 03:15:10;;;;;;;9.95;5.82;;;;;;;4.82;52.61;100470.59;5029459;28;20096;-74
2021/03/07 03:17:38;;;;;;;10.45;5.78;;;;;;;4.84;52.48;100473.16;5028772;28;20049;-73
2021/03/07 03:20:10;;;;;;;10.85;6.00;;;;;;;4.84;52.59;100478.38;5031867;28;20085;-73
2021/03/07 03:22:36;;;;;;;11.82;6.53;;;;;;;4.86;52.57;100474.00;5024960;28;20041;-74
2021/03/07 03:25:05;;;;;;;11.18;5.82;;;;;;;4.86;52.52;100466.22;5029026;28;20491;-73
2021/03/07 03:27:32;;;;;;;11.00;5.78;;;;;;;4.81;52.74;100468.00;5030328;28;20046;-74
2021/03/07 03:30:00;;;;;;;7.43;5.32;;;;;;;4.77;52.59;100451.59;5042255;28;20057;-73
2021/03/07 03:32:29;;;;;;;11.43;6.03;;;;;;;4.71;52.99;100461.19;5035582;28;20471;-73
2021/03/07 03:34:57;;;;;;;11.57;6.28;;;;;;;4.74;52.83;100466.34;5030609;28;20060;-73
2021/03/07 03:37:23;;;;;;;13.13;6.40;;;;;;;4.75;52.82;100458.53;5030762;28;20059;-74
2021/03/07 03:39:52;;;;;;;10.75;5.72;;;;;;;4.73;52.64;100449.91;5031511;28;20100;-74
2021/03/07 03:42:19;;;;;;;7.70;5.80;;;;;;;4.75;52.76;100447.28;5031003;28;20080;-74
2021/03/07 03:44:46;;;;;;;8.45;5.00;;;;;;;4.71;52.99;100451.66;5026902;28;20128;-73
2021/03/07 03:47:15;;;;;;;9.10;5.60;;;;;;;4.70;52.81;100449.09;5021026;28;20137;-74
2021/03/07 03:49:52;;;;;;;12.15;5.85;;;;;;;4.74;53.01;100442.97;5030720;28;20074;-73
2021/03/07 03:52:20;;;;;;;10.02;4.88;;;;;;;4.77;52.84;100441.19;5028673;28;20060;-73
2021/03/07 03:54:49;;;;;;;8.20;4.78;;;;;;;4.76;53.08;100438.63;5028744;28;20092;-73
2021/03/07 03:57:18;;;;;;;6.65;4.70;;;;;;;4.78;52.85;100442.91;5029607;28;20057;-73
2021/03/07 03:59:48;;;;;;;8.15;5.13;;;;;;;4.77;52.67;100445.53;5031350;28;20494;-73
2021/03/07 04:02:14;;;;;;;10.20;5.20;;;;;;;4.83;52.61;100440.28;5027097;28;20339;-74
2021/03/07 04:04:44;;;;;;;8.95;4.82;;;;;;;4.86;52.46;100430.72;5029065;28;20140;-73
2021/03/07 04:07:11;;;;;;;8.48;4.90;;;;;;;4.86;52.50;100430.72;5029830;28;20046;-74
2021/03/07 04:09:41;;;;;;;6.72;4.32;;;;;;;4.85;52.54;100435.94;5030629;28;20096;-74
2021/03/07 04:12:08;;;;;;;7.85;4.90;;;;;;;4.81;52.60;100426.47;5030102;28;20484;-75
2021/03/07 04:14:35;;;;;;;7.53;5.07;;;;;;;4.82;52.60;100422.97;5031619;28;20571;-73
2021/03/07 04:17:02;;;;;;;6.15;4.60;;;;;;;4.85;52.36;100421.19;5028015;28;20093;-73
2021/03/07 04:19:30;;;;;;;11.00;5.05;;;;;;;4.86;52.78;100419.47;5031498;28;20053;-73
2021/03/07 04:21:58;;;;;;;11.20;5.28;;;;;;;4.88;52.66;100418.56;5030319;28;20054;-74
2021/03/07 04:24:25;;;;;;;9.48;5.28;;;;;;;4.89;52.39;100419.41;5030308;28;20042;-73
2021/03/07 04:26:52;;;;;;;8.73;5.55;;;;;;;4.88;52.50;100412.50;5028344;28;20103;-72
2021/03/07 04:29:18;;;;;;;8.65;5.53;;;;;;;4.87;52.59;100414.25;5035071;28;20045;-74
2021/03/07 04:31:45;;;;;;;7.43;4.68;;;;;;;4.89;52.46;100416.81;5035385;28;20137;-74
2021/03/07 04:34:12;;;;;;;7.47;5.68;;;;;;;4.89;52.64;100406.44;5034434;28;20136;-74
2021/03/07 04:36:38;;;;;;;8.68;4.90;;;;;;;4.87;52.42;100406.44;5032001;28;20076;-75
2021/03/07 04:39:06;;;;;;;10.27;5.72;;;;;;;4.88;52.44;100402.13;5034243;28;20513;-75
2021/03/07 04:41:32;;;;;;;10.50;5.90;;;;;;;4.87;52.44;100405.59;5034357;28;20136;-74
2021/03/07 04:43:58;;;;;;;11.52;5.60;;;;;;;4.90;52.48;100402.94;5028065;28;20115;-74
2021/03/07 04:46:26;;;;;;;7.68;5.60;;;;;;;4.92;52.48;100396.00;5031234;28;20046;-74
2021/03/07 04:48:55;;;;;;;8.18;5.70;;;;;;;4.94;52.32;100391.63;5029087;28;20060;-74
2021/03/07 04:51:21;;;;;;;10.05;5.65;;;;;;;4.96;52.32;100397.66;5032814;28;20048;-74
2021/03/07 04:53:48;;;;;;;6.63;5.25;;;;;;;4.96;52.11;100384.69;5033409;28;20049;-74
2021/03/07 04:56:15;;;;;;;7.47;5.47;;;;;;;4.97;52.16;100391.59;5028294;28;20108;-74
2021/03/07 04:58:41;;;;;;;8.90;5.45;;;;;;;5.04;51.88;100394.97;5028379;28;20073;-73
2021/03/07 05:01:08;;;;;;;10.52;5.93;;;;;;;5.05;52.01;100381.97;5033721;28;20084;-74
2021/03/07 05:03:34;;;;;;;6.43;4.45;;;;;;;5.03;51.88;100394.13;5033672;28;20135;-73
2021/03/07 05:06:01;;;;;;;7.40;4.95;;;;;;;5.03;51.74;100381.13;5028663;28;20069;-74
2021/03/07 05:08:27;;;;;;;9.68;4.68;;;;;;;5.03;51.51;100388.06;5032966;28;20045;-73
2021/03/07 05:10:54;;;;;;;7.63;5.20;;;;;;;5.03;51.71;100375.94;5033670;28;20493;-72
2021/03/07 05:13:22;;;;;;;8.73;5.13;;;;;;;5.03;51.57;100381.13;5032687;28;20049;-74
2021/03/07 05:15:48;;;;;;;9.02;5.07;;;;;;;5.03;51.35;100381.13;5028665;28;20144;-74
2021/03/07 05:18:14;;;;;;;6.90;4.20;;;;;;;5.02;51.53;100379.41;5033271;28;20080;-73
2021/03/07 05:20:40;;;;;;;7.88;4.65;;;;;;;5.05;51.23;100388.91;5033318;28;20448;-74
2021/03/07 05:23:07;;;;;;;6.28;4.13;;;;;;;5.06;51.03;100375.91;5033891;28;20140;-74
2021/03/07 05:25:33;;;;;;;7.03;5.05;;;;;;;5.09;50.85;100375.00;5028832;28;20054;-74
2021/03/07 05:27:59;;;;;;;7.47;4.78;;;;;;;5.14;50.99;100373.19;5034078;28;20088;-74
2021/03/07 05:30:26;;;;;;;9.00;4.95;;;;;;;5.16;50.94;100361.88;5030834;28;20148;-72
2021/03/07 05:32:53;;;;;;;7.95;4.82;;;;;;;5.14;51.05;100370.56;5031124;28;20085;-74
2021/03/07 05:35:19;;;;;;;7.57;4.32;;;;;;;5.12;50.79;100370.59;5034096;28;20128;-73
2021/03/07 05:37:46;;;;;;;7.72;4.78;;;;;;;5.15;50.74;100370.56;5024276;28;20064;-74
2021/03/07 05:40:13;;;;;;;7.68;5.22;;;;;;;5.16;50.98;100374.00;5032798;28;20590;-73
2021/03/07 05:42:40;;;;;;;4.75;3.88;;;;;;;5.15;50.58;100354.97;5029356;28;20241;-73
2021/03/07 05:45:07;;;;;;;6.60;4.10;;;;;;;5.13;50.57;100356.72;5029019;28;20142;-74
2021/03/07 05:47:34;;;;;;;7.30;4.40;;;;;;;5.15;50.32;100343.72;5026259;28;20120;-74
2021/03/07 05:50:00;;;;;;;9.63;5.30;;;;;;;5.13;50.62;100348.94;5031267;28;20056;-73
2021/03/07 05:52:26;;;;;;;7.55;3.60;;;;;;;5.10;50.36;100348.97;5030726;28;20073;-74
2021/03/07 05:54:53;;;;;;;5.97;4.00;;;;;;;5.12;50.43;100344.63;5030114;28;20132;-74
2021/03/07 05:57:21;;;;;;;7.60;4.20;;;;;;;5.12;50.11;100346.34;5023650;28;20057;-75
2021/03/07 05:59:48;;;;;;;8.02;3.72;;;;;;;5.11;50.44;100348.09;5031192;28;20084;-74
2021/03/07 06:02:15;;;;;;;7.18;4.38;;;;;;;5.08;50.13;100345.53;5032978;28;20053;-74
2021/03/07 06:04:42;;;;;;;9.68;5.20;;;;;;;5.11;50.22;100345.50;5028102;28;20053;-76
2021/03/07 06:07:09;;;;;;;10.88;5.47;;;;;;;5.17;49.88;100342.78;5032280;28;20064;-73
2021/03/07 06:09:35;;;;;;;8.82;4.60;;;;;;;5.22;50.04;100345.34;5033409;28;20072;-74
2021/03/07 06:12:02;;;;;;;7.57;4.55;;;;;;;5.19;49.98;100353.16;5032364;28;20048;-75
2021/03/07 06:14:30;;;;;;;5.88;3.88;;;;;;;5.18;50.14;100354.91;5032695;28;20057;-74
2021/03/07 06:17:07;;;;;;;7.22;4.63;;;;;;;5.18;49.93;100365.31;5031981;28;20045;-75
2021/03/07 06:19:56;;;;;;;9.10;5.07;;;;;;;5.18;49.86;100347.13;5026285;28;20253;-76
2021/03/07 06:22:23;;;;;;;6.72;4.60;;;;;;;5.25;49.86;100360.03;5032123;28;20049;-73
2021/03/07 06:24:49;;;;;;;9.63;5.65;;;;;;;5.24;49.85;100355.72;5030269;28;20128;-74
2021/03/07 06:27:17;;;;;;;11.70;5.97;;;;;;;5.29;49.67;100357.38;5026958;28;20058;-75
2021/03/07 06:29:59;;;;;;;7.78;4.28;;;;;;;5.27;49.99;100359.13;5033164;28;20069;-74
2021/03/07 06:32:28;;;;;;;11.02;4.85;;;;;;;5.33;49.74;100358.19;5023048;28;20136;-73
2021/03/07 06:34:54;;;;;;;10.48;5.57;;;;;;;5.35;49.81;100362.47;5032828;28;20088;-73
2021/03/07 06:37:22;;;;;;;7.10;4.63;;;;;;;5.35;49.84;100356.41;5026423;28;20049;-74
2021/03/07 06:39:49;;;;;;;9.77;5.03;;;;;;;5.35;49.76;100356.41;5021220;28;20140;-74
2021/03/07 06:42:16;;;;;;;7.55;4.38;;;;;;;5.34;49.58;100339.94;5031190;28;20079;-73
2021/03/07 06:45:00;;;;;;;9.77;5.50;;;;;;;5.26;49.87;100320.16;5039848;28;20037;-73
2021/03/07 06:47:28;;;;;;;8.13;5.03;;;;;;;5.23;49.87;100335.81;5037276;28;20080;-74
2021/03/07 06:50:13;;;;;;;9.63;5.55;;;;;;;5.19;49.62;100355.75;5031846;28;20054;-72
2021/03/07 06:52:49;;;;;;;9.70;4.95;;;;;;;5.20;49.66;100341.88;5031250;28;20049;-73
2021/03/07 06:55:17;;;;;;;7.97;5.03;;;;;;;5.24;49.26;100340.13;5031027;28;20050;-73
2021/03/07 06:57:43;;;;;;;10.15;5.68;;;;;;;5.24;49.24;100359.19;5027041;28;20477;-73
2021/03/07 07:00:10;;;;;;;11.20;6.80;;;;;;;5.23;49.33;100351.41;5027981;28;20056;-73
2021/03/07 07:02:37;;;;;;;11.77;5.72;;;;;;;5.32;49.12;100348.66;5031264;28;20048;-73
2021/03/07 07:05:03;;;;;;;11.07;6.22;;;;;;;5.36;48.99;100345.13;5030247;28;20112;-73
2021/03/07 07:07:29;;;;;;;9.98;5.10;;;;;;;5.35;48.99;100357.25;5030666;28;20057;-74
2021/03/07 07:10:03;;;;;;;18.48;8.23;;;;;;;5.40;49.03;100349.38;5031997;28;20052;-73
2021/03/07 07:12:30;;;;;;;15.30;7.65;;;;;;;5.49;48.90;100354.47;5030648;28;20030;-73
2021/03/07 07:15:08;;;;;;;10.50;6.68;;;;;;;5.45;49.14;100350.19;5022926;28;20081;-74
2021/03/07 07:17:35;;;;;;;13.18;7.70;;;;;;;5.43;49.09;100349.38;5030541;28;20116;-74
2021/03/07 07:20:01;;;;;;;11.20;5.80;;;;;;;5.38;49.21;100341.63;5032071;28;20049;-74
2021/03/07 07:22:27;;;;;;;12.73;6.20;;;;;;;5.35;49.12;100333.88;5031105;28;20140;-74
2021/03/07 07:24:54;;;;;;;15.98;7.13;;;;;;;5.37;49.12;100336.44;5027670;28;20099;-73
2021/03/07 07:27:21;;;;;;;16.00;6.88;;;;;;;5.37;49.06;100345.09;5030585;28;20057;-75
2021/03/07 07:29:48;;;;;;;17.40;7.50;;;;;;;5.43;49.10;100333.75;5028673;28;20088;-73
2021/03/07 07:32:21;;;;;;;23.17;9.05;;;;;;;5.47;49.06;100328.47;5024170;28;20073;-74
2021/03/07 07:34:50;;;;;;;13.70;5.53;;;;;;;5.50;48.88;100319.78;5030091;28;20057;-74
2021/03/07 07:37:23;;;;;;;21.48;9.65;;;;;;;5.45;48.98;100327.66;5028533;28;20049;-74
2021/03/07 07:39:51;;;;;;;14.68;8.00;;;;;;;5.46;48.99;100325.91;5021738;28;20053;-74
2021/03/07 07:42:19;;;;;;;16.58;8.25;;;;;;;5.45;49.04;100321.59;5025713;28;20049;-74
2021/03/07 07:44:47;;;;;;;11.15;6.88;;;;;;;5.44;49.16;100319.88;5028584;28;20081;-73
2021/03/07 07:47:13;;;;;;;12.00;6.63;;;;;;;5.49;49.06;100318.91;5025251;28;20264;-74
2021/03/07 07:49:50;;;;;;;12.07;6.15;;;;;;;5.52;49.23;100318.00;5030185;28;20145;-76
2021/03/07 07:52:35;;;;;;;13.75;6.70;;;;;;;5.50;49.22;100311.97;5030467;28;20141;-75
2021/03/07 07:55:13;;;;;;;12.80;6.00;;;;;;;5.52;49.03;100312.81;5029360;28;20528;-74
2021/03/07 07:57:50;;;;;;;10.82;5.93;;;;;;;5.60;49.01;100300.50;5030898;28;20652;-73
2021/03/07 08:00:21;;;;;;;13.57;6.47;;;;;;;5.67;49.07;100290.88;5028752;28;20140;-74
2021/03/07 08:02:58;;;;;;;14.30;8.45;;;;;;;5.73;49.11;100294.22;5021444;28;20576;-75
2021/03/07 08:05:46;;;;;;;13.40;7.60;;;;;;;5.80;49.10;100290.63;5030595;28;20485;-74
2021/03/07 08:08:16;;;;;;;14.02;6.35;;;;;;;5.82;48.75;100295.78;5030600;28;20049;-73
2021/03/07 08:10:44;;;;;;;11.15;5.28;;;;;;;5.68;49.11;100290.84;5030473;28;20049;-74
2021/03/07 08:13:13;;;;;;;12.40;6.72;;;;;;;5.69;49.05;100278.72;5026190;28;20049;-74
2021/03/07 08:15:48;;;;;;;26.40;14.30;;;;;;;5.72;49.05;100289.91;5030385;28;20119;-74
2021/03/07 08:18:17;;;;;;;13.05;8.07;;;;;;;5.85;48.91;100289.69;5030541;28;20103;-73
2021/03/07 08:21:04;;;;;;;11.90;5.90;;;;;;;5.78;49.04;100287.19;5030094;28;20045;-74
2021/03/07 08:23:30;;;;;;;8.45;5.32;;;;;;;5.69;49.03;100289.97;5029778;28;20050;-75
2021/03/07 08:26:02;;;;;;;9.57;5.57;;;;;;;5.70;49.14;100307.28;5030776;28;20064;-75
2021/03/07 08:28:44;;;;;;;9.00;5.53;;;;;;;5.80;49.09;100293.22;5027246;28;20504;-74
2021/03/07 08:31:33;;;;;;;12.43;7.05;;;;;;;5.93;48.87;100293.03;5026302;28;20048;-74
2021/03/07 08:34:18;;;;;;;11.35;7.00;;;;;;;6.02;48.53;100290.25;5028042;28;20076;-73
2021/03/07 08:36:53;;;;;;;12.32;6.50;;;;;;;6.09;48.12;100286.66;5027134;28;20053;-74
2021/03/07 08:39:19;;;;;;;9.07;5.93;;;;;;;6.10;48.19;100293.59;5026602;28;20477;-74
2021/03/07 08:42:00;;;;;;;19.02;5.72;;;;;;;6.06;47.90;100278.91;5021976;28;20761;-75
2021/03/07 08:44:27;;;;;;;9.38;5.55;;;;;;;6.14;47.44;100286.56;5029266;28;20065;-74
2021/03/07 08:46:55;;;;;;;12.10;6.43;;;;;;;6.34;46.87;100282.69;5028764;28;20052;-75
2021/03/07 08:49:24;;;;;;;15.00;7.50;;;;;;;6.46;46.52;100284.19;5025546;28;20045;-74
2021/03/07 08:51:52;;;;;;;11.90;5.53;;;;;;;6.47;46.37;100282.44;5025354;28;20046;-74
2021/03/07 08:54:21;;;;;;;7.43;4.82;;;;;;;6.50;46.31;100284.97;5027770;28;20406;-73
2021/03/07 08:56:48;;;;;;;8.00;4.57;;;;;;;6.45;45.93;100277.22;5023997;28;20496;-75
2021/03/07 08:59:14;;;;;;;12.43;4.50;;;;;;;6.54;45.79;100276.19;5025750;28;20049;-74
2021/03/07 09:01:41;;;;;;;8.02;4.32;;;;;;;6.58;45.50;100268.28;5029189;28;20049;-73
2021/03/07 09:04:11;;;;;;;8.50;4.72;;;;;;;6.52;45.30;100275.38;5027160;28;20050;-74
2021/03/07 09:06:39;;;;;;;7.07;4.15;;;;;;;6.54;45.19;100265.78;5028771;28;20029;-73
2021/03/07 09:09:10;;;;;;;12.63;5.22;;;;;;;6.53;45.00;100264.06;5030320;28;20049;-74
2021/03/07 09:11:38;;;;;;;10.27;5.55;;;;;;;6.76;44.63;100264.41;5027634;28;20042;-75
2021/03/07 09:14:04;;;;;;;9.38;4.30;;;;;;;6.94;44.04;100266.59;5030581;28;20056;-74
2021/03/07 09:16:43;;;;;;;8.48;4.90;;;;;;;7.04;43.92;100249.84;5031437;28;20057;-74
2021/03/07 09:19:32;;;;;;;13.63;7.10;;;;;;;7.37;43.78;100252.53;5028304;28;20543;-74
2021/03/07 09:22:30;;;;;;;15.80;7.68;;;;;;;7.62;43.09;100230.13;5027707;28;20061;-72
2021/03/07 09:25:03;;;;;;;9.77;5.68;;;;;;;7.68;43.11;100244.75;5028119;28;20144;-75
2021/03/07 09:27:31;;;;;;;8.13;4.80;;;;;;;7.56;43.13;100230.28;5026219;28;20046;-75
2021/03/07 09:30:07;;;;;;;10.88;5.97;;;;;;;7.41;43.39;100230.69;5029783;28;20049;-71
2021/03/07 09:32:35;;;;;;;16.90;9.43;;;;;;;7.55;43.38;100238.16;5026194;28;20053;-73
2021/03/07 09:35:17;;;;;;;11.63;6.40;;;;;;;7.64;43.23;100233.53;5030323;28;20041;-73
2021/03/07 09:37:44;;;;;;;11.57;5.70;;;;;;;7.50;42.93;100225.25;5028879;28;22027;-72
2021/03/07 09:40:12;;;;;;;11.63;6.40;;;;;;;7.51;43.16;100237.38;5031316;28;20045;-74
2021/03/07 09:42:40;;;;;;;12.75;7.13;;;;;;;7.53;42.86;100237.34;5031627;28;20049;-74
2021/03/07 09:45:08;;;;;;;10.48;5.38;;;;;;;7.32;43.30;100223.09;5026435;28;20092;-73
2021/03/07 09:47:34;;;;;;;11.32;6.18;;;;;;;7.31;43.15;100229.22;5027568;28;20414;-75
2021/03/07 09:50:02;;;;;;;12.05;5.95;;;;;;;7.42;43.11;100232.41;5031725;28;20053;-75
2021/03/07 09:52:29;;;;;;;16.15;8.77;;;;;;;7.46;42.94;100230.56;5026214;28;20057;-75
2021/03/07 09:54:56;;;;;;;10.73;5.65;;;;;;;7.38;43.11;100222.09;5029361;28;20498;-73
2021/03/07 09:57:23;;;;;;;11.43;6.30;;;;;;;7.37;43.21;100225.59;5032110;28;20405;-74
2021/03/07 09:59:50;;;;;;;15.18;7.65;;;;;;;7.37;43.14;100223.84;5023678;28;20057;-73
2021/03/07 10:02:17;;;;;;;13.27;7.05;;;;;;;7.44;43.09;100235.81;5030177;28;20053;-73
2021/03/07 10:04:45;;;;;;;7.95;5.20;;;;;;;7.37;43.19;100229.06;5031372;28;20045;-72
2021/03/07 10:07:25;;;;;;;12.40;6.32;;;;;;;7.30;43.21;100243.16;5032214;28;20076;-72
2021/03/07 10:10:02;;;;;;;9.75;6.55;;;;;;;7.13;43.48;100240.09;5041458;28;20083;-73
2021/03/07 10:12:44;;;;;;;17.30;7.43;;;;;;;6.97;44.12;100234.41;5036650;28;20053;-73
2021/03/07 10:15:11;;;;;;;10.25;5.57;;;;;;;6.90;43.87;100238.91;5029547;28;20072;-73
2021/03/07 10:17:40;;;;;;;12.88;5.85;;;;;;;6.74;44.36;100242.75;5030197;28;20409;-72
2021/03/07 10:20:08;;;;;;;11.80;6.75;;;;;;;6.65;44.51;100242.94;5031520;28;20402;-71
2021/03/07 10:22:40;;;;;;;9.95;4.85;;;;;;;6.68;44.20;100227.25;5026178;28;20030;-73
2021/03/07 10:25:08;;;;;;;8.98;4.90;;;;;;;6.69;43.77;100223.75;5027409;28;20072;-79
2021/03/07 10:27:35;;;;;;;9.98;5.40;;;;;;;6.76;43.90;100229.69;5023960;28;20046;-73
2021/03/07 10:30:01;;;;;;;8.00;4.88;;;;;;;6.87;43.30;100218.13;5026888;28;20073;-74
2021/03/07 10:32:30;;;;;;;10.48;5.40;;;;;;;6.97;43.23;100222.22;5028078;28;20049;-74
2021/03/07 10:34:56;;;;;;;11.45;5.20;;;;;;;7.07;43.11;100229.81;5028781;28;20509;-72
2021/03/07 10:37:37;;;;;;;9.63;5.38;;;;;;;7.19;42.95;100224.28;5030847;28;20056;-73
2021/03/07 10:40:08;;;;;;;13.25;6.88;;;;;;;7.43;42.38;100225.41;5030144;28;20072;-74
2021/03/07 10:42:36;;;;;;;12.68;7.15;;;;;;;7.53;42.56;100219.09;5025987;28;20057;-74
2021/03/07 10:45:13;;;;;;;9.27;5.28;;;;;;;7.42;42.54;100211.53;5031381;28;20057;-74
2021/03/07 10:47:39;;;;;;;12.40;5.80;;;;;;;7.34;42.52;100221.31;5028526;28;20142;-74
2021/03/07 10:50:07;;;;;;;10.07;5.10;;;;;;;7.39;42.40;100209.00;5026230;28;20053;-72
2021/03/07 10:52:33;;;;;;;12.20;5.97;;;;;;;7.43;42.34;100215.00;5021045;28;20057;-74
2021/03/07 10:55:00;;;;;;;10.07;5.03;;;;;;;7.38;42.14;100216.88;5028008;28;20054;-72
2021/03/07 10:57:27;;;;;;;10.43;6.45;;;;;;;7.39;41.96;100219.44;5030105;28;20067;-73
2021/03/07 10:59:53;;;;;;;7.57;4.70;;;;;;;7.30;41.82;100211.88;5026082;28;20041;-72
2021/03/07 11:02:20;;;;;;;12.82;5.88;;;;;;;7.33;41.94;100212.63;5026965;28;20097;-72
2021/03/07 11:04:46;;;;;;;9.57;4.85;;;;;;;7.36;41.92;100209.09;5027516;28;20049;-72
2021/03/07 11:07:12;;;;;;;12.25;6.60;;;;;;;7.38;41.91;100194.25;5019905;28;20324;-73
2021/03/07 11:09:39;;;;;;;7.10;4.50;;;;;;;7.29;41.89;100210.16;4980738;28;20401;-73
2021/03/07 11:12:07;;;;;;;9.57;5.22;;;;;;;7.20;42.02;100192.97;5025077;28;20046;-75
2021/03/07 11:14:34;;;;;;;9.75;5.13;;;;;;;7.12;42.17;100197.53;5027932;28;20053;-74
2021/03/07 11:17:00;;;;;;;8.90;4.63;;;;;;;7.11;42.38;100195.81;5020495;28;20045;-71
2021/03/07 11:19:26;;;;;;;12.35;4.95;;;;;;;7.10;42.34;100193.25;5027401;28;20057;-75
2021/03/07 11:21:53;;;;;;;11.45;5.53;;;;;;;7.16;42.21;100187.88;5026966;28;20049;-74
2021/03/07 11:24:19;;;;;;;13.73;6.85;;;;;;;7.19;42.45;100190.41;5026887;28;20490;-74
2021/03/07 11:26:45;;;;;;;15.18;6.03;;;;;;;7.11;42.33;100187.16;5029470;28;20049;-73
2021/03/07 11:29:12;;;;;;;11.30;5.00;;;;;;;7.11;42.30;100181.94;5024707;28;20068;-73
2021/03/07 11:31:39;;;;;;;16.05;7.35;;;;;;;7.12;42.38;100186.25;5027125;28;20049;-75
2021/03/07 11:34:06;;;;;;;7.55;5.30;;;;;;;7.13;42.25;100177.53;5023370;28;20053;-74
2021/03/07 11:36:32;;;;;;;11.23;4.78;;;;;;;7.09;42.58;100178.50;5031809;28;20053;-75